METAR Data
IDs: Format: Raw Decoded Include TAF

Data at: 1640 UTC 26 Sep 2021

METAR for:TJNR (Roosevelt Roads Arpt, PR, US)
Text:TJNR 261633Z AUTO 08007KT 10SM SCT024 31/26 A2998 RMK AO2 T03110261
Temperature: 31.1°C ( 88°F)
Dewpoint: 26.1°C ( 79°F) [RH = 75%]
Pressure (altimeter):29.98 inches Hg (1015.3 mb)
Winds:from the E (80 degrees) at 8 MPH (7 knots; 3.6 m/s)
Visibility:10 or more sm (16+ km)
Ceiling:at least 12,000 feet AGL
Clouds: scattered clouds at 2400 feet AGL
QC Flag:automated observation with no human augmentation